createdAt,value
2019-05-11T00:04:25.229Z,9.70
2019-05-11T00:09:32.730Z,9.80
2019-05-11T00:14:40.017Z,9.90
2019-05-11T00:19:47.106Z,9.80
2019-05-11T00:24:54.309Z,9.90
2019-05-11T00:30:01.590Z,10.10
2019-05-11T00:35:09.580Z,10.00
2019-05-11T00:40:16.847Z,10.00
2019-05-11T00:45:23.927Z,9.90
2019-05-11T00:50:39.288Z,9.80
2019-05-11T00:55:40.018Z,9.70
2019-05-11T01:00:47.102Z,9.50
2019-05-11T01:05:54.942Z,9.40
2019-05-11T01:11:02.900Z,9.50
2019-05-11T01:16:10.070Z,9.60
2019-05-11T01:21:18.947Z,9.70
2019-05-11T01:26:26.523Z,9.80
2019-05-11T01:31:34.428Z,9.80
2019-05-11T01:36:42.397Z,9.80
2019-05-11T01:41:49.710Z,9.90
2019-05-11T01:46:57.014Z,10.00
2019-05-11T01:52:04.570Z,10.10
2019-05-11T01:57:11.920Z,10.10
2019-05-11T02:02:20.822Z,10.10
2019-05-11T02:07:28.038Z,10.10
2019-05-11T02:12:35.213Z,10.20
2019-05-11T02:17:42.286Z,10.20
2019-05-11T02:22:50.172Z,10.20
2019-05-11T02:27:58.043Z,10.20
2019-05-11T02:33:05.160Z,10.20
2019-05-11T02:38:12.643Z,10.20
2019-05-11T02:43:19.859Z,10.20
2019-05-11T02:48:26.946Z,10.20
2019-05-11T02:53:35.162Z,10.20
2019-05-11T02:58:43.350Z,10.10
2019-05-11T03:03:50.911Z,10.00
2019-05-11T03:08:58.999Z,10.10
2019-05-11T03:14:06.211Z,10.00
2019-05-11T03:19:13.315Z,10.00
2019-05-11T03:24:23.998Z,10.10
2019-05-11T03:29:29.201Z,10.10
2019-05-11T03:34:36.377Z,10.20
2019-05-11T03:39:44.333Z,10.10
2019-05-11T03:44:51.598Z,10.20
2019-05-11T03:49:58.757Z,10.30
2019-05-11T03:55:06.362Z,10.30
2019-05-11T04:00:14.339Z,10.30
2019-05-11T04:05:21.546Z,10.30
2019-05-11T04:10:28.724Z,10.30
2019-05-11T04:15:35.813Z,10.20
2019-05-11T04:20:44.175Z,10.20
2019-05-11T04:25:51.350Z,10.20
2019-05-11T04:31:02.372Z,10.20
2019-05-11T04:36:10.184Z,10.20
2019-05-11T04:41:17.416Z,10.30
2019-05-11T04:46:24.629Z,10.30
2019-05-11T04:51:32.438Z,10.30
2019-05-11T04:56:40.365Z,10.40
2019-05-11T05:01:47.415Z,10.40
2019-05-11T05:06:59.864Z,10.50
2019-05-11T05:12:08.466Z,10.70
2019-05-11T05:17:12.313Z,10.90
2019-05-11T05:22:21.373Z,11.00
2019-05-11T05:27:28.519Z,10.90
2019-05-11T05:32:35.969Z,11.00
2019-05-11T05:37:43.230Z,10.90
2019-05-11T05:42:50.365Z,10.90
2019-05-11T05:47:57.851Z,11.30
2019-05-11T05:53:05.505Z,12.10
2019-05-11T05:58:12.741Z,12.70
2019-05-11T06:03:20.170Z,12.80
2019-05-11T06:08:27.488Z,12.50
2019-05-11T06:13:45.364Z,12.30
2019-05-11T06:18:43.813Z,12.40
2019-05-11T06:23:51.016Z,12.60
2019-05-11T06:28:58.193Z,12.60
2019-05-11T06:34:05.336Z,13.00
2019-05-11T06:39:13.425Z,12.80
2019-05-11T06:44:20.597Z,12.70
2019-05-11T06:49:28.292Z,12.70
2019-05-11T06:54:36.070Z,12.70
2019-05-11T06:59:43.992Z,13.00
2019-05-11T07:04:51.200Z,13.10
2019-05-11T07:09:59.825Z,13.00
2019-05-11T07:15:07.337Z,13.50
2019-05-11T07:20:15.760Z,13.40
2019-05-11T07:25:23.453Z,13.70
2019-05-11T07:30:31.535Z,14.10
2019-05-11T07:35:39.336Z,14.20
2019-05-11T07:40:47.680Z,14.10
2019-05-11T07:45:54.886Z,14.00
2019-05-11T07:51:02.480Z,14.10
2019-05-11T07:56:09.805Z,14.50
2019-05-11T08:01:19.122Z,14.90
2019-05-11T08:06:28.592Z,15.00
2019-05-11T08:11:35.223Z,14.70
2019-05-11T08:16:42.454Z,14.30
2019-05-11T08:21:50.229Z,14.10
2019-05-11T08:26:58.194Z,14.20
2019-05-11T08:32:08.052Z,14.60
2019-05-11T08:37:14.301Z,14.20
2019-05-11T08:42:21.406Z,14.00
2019-05-11T08:47:28.949Z,13.90
2019-05-11T08:52:38.423Z,13.70
2019-05-11T08:57:47.796Z,13.80
2019-05-11T09:02:55.068Z,13.90
2019-05-11T09:08:02.709Z,13.80
2019-05-11T09:13:10.092Z,13.70
2019-05-11T09:18:18.733Z,13.90
2019-05-11T09:23:34.560Z,13.80
2019-05-11T09:28:38.252Z,13.70
2019-05-11T09:33:45.054Z,13.70
2019-05-11T09:38:52.250Z,13.70
2019-05-11T09:43:59.656Z,14.00
2019-05-11T09:49:08.079Z,14.20
2019-05-11T09:54:18.116Z,14.30
2019-05-11T09:59:24.916Z,14.20
2019-05-11T10:04:32.227Z,14.50
2019-05-11T10:09:39.413Z,15.10
2019-05-11T10:14:48.598Z,16.20
2019-05-11T10:19:58.039Z,17.10
2019-05-11T10:25:06.079Z,16.80
2019-05-11T10:30:14.042Z,16.30
2019-05-11T10:35:21.115Z,16.20
2019-05-11T10:40:28.507Z,16.10
2019-05-11T10:45:37.922Z,16.30
2019-05-11T10:50:45.675Z,16.60
2019-05-11T10:55:52.985Z,16.90
2019-05-11T11:01:01.341Z,17.40
2019-05-11T11:06:08.601Z,18.10
2019-05-11T11:11:18.498Z,17.80
2019-05-11T11:16:36.744Z,17.40
2019-05-11T11:21:34.731Z,17.30
2019-05-11T11:26:42.205Z,17.50
2019-05-11T11:31:53.027Z,17.20
2019-05-11T11:37:00.444Z,17.50
2019-05-11T11:42:08.483Z,17.40
2019-05-11T11:47:20.971Z,18.50
2019-05-11T11:52:27.564Z,19.20
2019-05-11T11:57:37.765Z,20.30
2019-05-11T12:02:45.185Z,20.50
2019-05-11T12:07:52.513Z,21.70
2019-05-11T12:12:59.790Z,21.70
2019-05-11T12:18:08.255Z,21.00
2019-05-11T12:23:17.818Z,20.20
2019-05-11T12:28:24.327Z,20.00
2019-05-11T12:33:31.510Z,20.00
2019-05-11T12:38:38.697Z,20.90
2019-05-11T12:43:46.174Z,20.50
2019-05-11T12:48:56.547Z,19.90
2019-05-11T12:54:02.678Z,20.90
2019-05-11T12:59:10.187Z,21.40
2019-05-11T13:04:18.139Z,23.50
2019-05-11T13:09:25.704Z,23.40
2019-05-11T13:14:33.137Z,24.40
2019-05-11T13:19:41.394Z,26.20
2019-05-11T13:24:48.698Z,26.50
2019-05-11T13:29:56.235Z,27.30
2019-05-11T13:35:03.836Z,28.00
2019-05-11T13:40:11.456Z,29.50
2019-05-11T13:45:18.972Z,28.00
2019-05-11T13:50:26.368Z,29.60
2019-05-11T13:55:34.532Z,29.70
2019-05-11T14:00:41.645Z,29.10
2019-05-11T14:05:48.937Z,29.70
2019-05-11T14:10:57.903Z,30.60
2019-05-11T14:16:05.237Z,30.50
2019-05-11T14:21:13.580Z,28.40
2019-05-11T14:26:20.828Z,29.60
2019-05-11T14:31:29.011Z,29.60
2019-05-11T14:36:38.520Z,31.50
2019-05-11T14:41:45.549Z,32.70
2019-05-11T14:46:52.746Z,33.20
2019-05-11T14:52:00.155Z,32.00
2019-05-11T14:57:08.056Z,27.80
2019-05-11T15:02:33.306Z,24.30
2019-05-11T15:07:41.610Z,24.20
2019-05-11T15:12:49.245Z,22.50
2019-05-11T15:17:58.164Z,21.80
2019-05-11T15:23:08.887Z,22.30
2019-05-11T15:28:18.165Z,23.20
2019-05-11T15:33:27.681Z,27.10
2019-05-11T15:38:34.745Z,29.00
2019-05-11T15:43:42.029Z,30.10
2019-05-11T15:48:59.430Z,30.00
2019-05-11T15:53:58.778Z,27.30
2019-05-11T15:59:08.615Z,24.20
2019-05-11T16:04:18.085Z,23.50
2019-05-11T16:09:24.882Z,25.30
2019-05-11T16:14:32.162Z,26.60
2019-05-11T16:19:41.121Z,26.40
2019-05-11T16:24:48.677Z,25.20
2019-05-11T16:29:57.042Z,24.00
2019-05-11T16:35:05.280Z,22.30
2019-05-11T16:40:13.774Z,21.50
2019-05-11T16:45:23.959Z,20.20
2019-05-11T16:50:31.904Z,19.00
2019-05-11T16:55:39.674Z,18.50
2019-05-11T17:00:49.034Z,18.10
2019-05-11T17:05:55.714Z,17.80
2019-05-11T17:11:02.988Z,17.70
2019-05-11T17:16:10.701Z,17.50
2019-05-11T17:21:18.453Z,17.20
2019-05-11T17:26:27.784Z,16.90
2019-05-11T17:31:34.397Z,16.50
2019-05-11T17:36:42.683Z,16.10
2019-05-11T17:41:50.270Z,15.70
2019-05-11T17:46:57.823Z,15.40
2019-05-11T17:52:07.996Z,15.00
2019-05-11T17:57:15.277Z,14.70
2019-05-11T18:02:22.462Z,14.30
2019-05-11T18:07:31.051Z,14.00
2019-05-11T18:12:39.172Z,13.80
2019-05-11T18:17:48.405Z,13.60
2019-05-11T18:22:58.074Z,13.40
2019-05-11T18:28:05.961Z,13.20
2019-05-11T18:33:13.018Z,12.90
2019-05-11T18:38:21.326Z,12.70
2019-05-11T18:43:28.722Z,12.50
2019-05-11T18:48:37.982Z,12.40
2019-05-11T18:53:45.039Z,12.30
2019-05-11T18:58:52.193Z,12.20
2019-05-11T19:04:00.130Z,12.10
2019-05-11T19:09:08.422Z,11.90
2019-05-11T19:14:16.904Z,11.70
2019-05-11T19:19:24.236Z,11.50
2019-05-11T19:24:32.264Z,11.30
2019-05-11T19:29:40.546Z,11.20
2019-05-11T19:34:47.895Z,11.10
2019-05-11T19:39:55.060Z,10.90
2019-05-11T19:45:02.469Z,10.80
2019-05-11T19:50:10.884Z,10.70
2019-05-11T19:55:18.599Z,10.60
2019-05-11T20:00:25.834Z,10.40
2019-05-11T20:05:34.142Z,10.20
2019-05-11T20:10:42.347Z,10.10
2019-05-11T20:15:49.666Z,10.00
2019-05-11T20:20:58.984Z,9.80
2019-05-11T20:26:06.024Z,9.60
2019-05-11T20:31:13.716Z,9.60
2019-05-11T20:36:20.828Z,9.60
2019-05-11T20:41:28.319Z,9.60
2019-05-11T20:46:35.400Z,9.50
2019-05-11T20:51:42.495Z,9.40
2019-05-11T20:56:49.619Z,9.40
2019-05-11T21:01:58.640Z,9.30
2019-05-11T21:07:08.505Z,9.20
2019-05-11T21:12:18.358Z,9.10
2019-05-11T21:17:24.622Z,9.20
2019-05-11T21:22:31.685Z,9.10
2019-05-11T21:27:39.303Z,9.10
2019-05-11T21:32:47.878Z,9.00
2019-05-11T21:37:55.355Z,8.90
2019-05-11T21:43:02.542Z,8.80
2019-05-11T21:48:09.657Z,8.70
2019-05-11T21:53:18.429Z,8.70
2019-05-11T21:58:28.423Z,8.60
2019-05-11T22:03:35.262Z,8.50
2019-05-11T22:08:42.418Z,8.50
2019-05-11T22:13:49.625Z,8.40
2019-05-11T22:18:58.039Z,8.40
2019-05-11T22:24:05.350Z,8.40
2019-05-11T22:29:12.865Z,8.30
2019-05-11T22:34:19.940Z,8.30
2019-05-11T22:39:27.130Z,8.20
2019-05-11T22:44:35.910Z,8.20
2019-05-11T22:49:43.145Z,8.20
2019-05-11T22:54:50.327Z,8.10
2019-05-11T22:59:59.079Z,8.10
2019-05-11T23:05:08.527Z,8.10
2019-05-11T23:10:17.737Z,8.10
2019-05-11T23:15:25.193Z,8.10
2019-05-11T23:20:33.546Z,8.10
2019-05-11T23:25:41.220Z,8.10
2019-05-11T23:30:48.388Z,8.00
2019-05-11T23:35:55.814Z,7.90
2019-05-11T23:41:03.211Z,7.90
2019-05-11T23:46:10.822Z,7.90
2019-05-11T23:51:18.268Z,7.80
2019-05-11T23:56:28.013Z,7.70
